Time;durP1;ratioP1;P1;durP2;ratioP2;P2;SDS_P1;SDS_P2;PMS_P1;PMS_P2;Temp;Humidity;BMP_temperature;BMP_pressure;BME280_temperature;BME280_humidity;BME280_pressure;Samples;Min_cycle;Max_cycle;Signal;HPM_P1;HPM_P2
2023/03/04 00:01:07;;;;;;;23.17;3.70;;;;;;;;;;5091881;28;20040;-63
2023/03/04 00:03:33;;;;;;;12.18;3.05;;;;;;;;;;5084351;28;20040;-62
2023/03/04 00:05:59;;;;;;;10.93;3.45;;;;;;;;;;5082391;28;20044;-62
2023/03/04 00:08:25;;;;;;;13.95;3.45;;;;;;;;;;5080228;28;20456;-63
2023/03/04 00:10:52;;;;;;;8.15;3.75;;;;;;;;;;5084232;28;20119;-62
2023/03/04 00:13:20;;;;;;;9.75;3.63;;;;;;;;;;5080066;28;20102;-62
2023/03/04 00:15:47;;;;;;;12.07;3.83;;;;;;;;;;5098122;28;20032;-62
2023/03/04 00:18:13;;;;;;;8.60;3.10;;;;;;;;;;5071690;28;20098;-62
2023/03/04 00:20:39;;;;;;;8.98;2.90;;;;;;;;;;5082215;28;20071;-63
2023/03/04 00:23:05;;;;;;;9.00;3.08;;;;;;;;;;5082001;28;20046;-63
2023/03/04 00:25:32;;;;;;;10.82;4.32;;;;;;;;;;5084328;28;20043;-63
2023/03/04 00:27:58;;;;;;;11.40;3.38;;;;;;;;;;5081373;28;20616;-63
2023/03/04 00:30:24;;;;;;;8.02;3.60;;;;;;;;;;5083906;28;20050;-63
2023/03/04 00:32:51;;;;;;;10.32;3.63;;;;;;;;;;5082530;28;20043;-62
2023/03/04 00:35:17;;;;;;;16.10;3.13;;;;;;;;;;5088764;28;20044;-62
2023/03/04 00:37:43;;;;;;;8.02;3.05;;;;;;;;;;5087037;28;20498;-62
2023/03/04 00:40:09;;;;;;;12.95;3.10;;;;;;;;;;5084465;28;20075;-62
2023/03/04 00:42:35;;;;;;;7.50;2.85;;;;;;;;;;5085572;28;20039;-62
2023/03/04 00:45:02;;;;;;;9.80;3.13;;;;;;;;;;5072446;28;20043;-62
2023/03/04 00:47:28;;;;;;;15.95;3.58;;;;;;;;;;5082916;28;20769;-62
2023/03/04 00:49:54;;;;;;;8.82;2.63;;;;;;;;;;5085023;28;20036;-62
2023/03/04 00:52:20;;;;;;;8.98;3.22;;;;;;;;;;5085153;28;20071;-63
2023/03/04 00:54:46;;;;;;;16.40;3.33;;;;;;;;;;5081869;28;20089;-62
2023/03/04 00:57:12;;;;;;;8.55;2.92;;;;;;;;;;5056488;28;20093;-62
2023/03/04 00:59:39;;;;;;;14.55;4.05;;;;;;;;;;5059660;28;20046;-62
2023/03/04 01:02:06;;;;;;;15.65;3.45;;;;;;;;;;5063979;28;20490;-63
2023/03/04 01:04:32;;;;;;;12.68;3.42;;;;;;;;;;5078142;28;20115;-62
2023/03/04 01:06:58;;;;;;;8.75;2.85;;;;;;;;;;5053581;28;20047;-62
2023/03/04 01:09:25;;;;;;;9.32;3.28;;;;;;;;;;5087637;28;20484;-62
2023/03/04 01:11:52;;;;;;;9.77;3.53;;;;;;;;;;5084843;28;20431;-62
2023/03/04 01:14:18;;;;;;;7.80;3.20;;;;;;;;;;5065165;28;20060;-62
2023/03/04 01:16:44;;;;;;;14.30;3.90;;;;;;;;;;5088279;28;20042;-62
2023/03/04 01:19:10;;;;;;;9.07;2.85;;;;;;;;;;5085767;28;20043;-62
2023/03/04 01:21:36;;;;;;;14.73;4.90;;;;;;;;;;5091195;28;20032;-62
2023/03/04 01:24:03;;;;;;;12.05;3.42;;;;;;;;;;5076468;28;20047;-63
2023/03/04 01:26:29;;;;;;;9.98;2.95;;;;;;;;;;5090033;28;20063;-62
2023/03/04 01:28:55;;;;;;;9.10;2.83;;;;;;;;;;5091435;28;20607;-63
2023/03/04 01:31:21;;;;;;;8.82;3.05;;;;;;;;;;5089788;28;20044;-62
2023/03/04 01:33:47;;;;;;;9.70;2.80;;;;;;;;;;5098427;28;20027;-62
2023/03/04 01:36:13;;;;;;;9.55;3.72;;;;;;;;;;5093423;28;20527;-62
2023/03/04 01:38:39;;;;;;;9.27;3.50;;;;;;;;;;5090460;28;20040;-62
2023/03/04 01:41:06;;;;;;;14.18;3.00;;;;;;;;;;5087538;28;20036;-62
2023/03/04 01:43:33;;;;;;;9.40;3.45;;;;;;;;;;5070113;28;20370;-62
2023/03/04 01:45:59;;;;;;;11.18;3.17;;;;;;;;;;5088359;28;20036;-62
2023/03/04 01:48:26;;;;;;;10.77;2.88;;;;;;;;;;5080625;28;20129;-62
2023/03/04 01:50:53;;;;;;;11.40;4.28;;;;;;;;;;5089348;28;20497;-62
2023/03/04 01:53:23;;;;;;;10.15;3.47;;;;;;;;;;5055199;28;20036;-62
2023/03/04 01:55:51;;;;;;;9.43;3.03;;;;;;;;;;5087641;28;20462;-62
2023/03/04 01:58:17;;;;;;;10.23;3.63;;;;;;;;;;5089712;28;20040;-63
2023/03/04 02:00:44;;;;;;;13.15;3.42;;;;;;;;;;5066155;28;20040;-63
2023/03/04 02:03:12;;;;;;;11.05;4.28;;;;;;;;;;5085220;28;20410;-62
2023/03/04 02:05:40;;;;;;;6.53;2.50;;;;;;;;;;5091046;28;20044;-62
2023/03/04 02:08:07;;;;;;;8.80;2.90;;;;;;;;;;5072901;28;20036;-62
2023/03/04 02:10:34;;;;;;;9.25;2.58;;;;;;;;;;5087856;28;20028;-62
2023/03/04 02:13:01;;;;;;;16.27;3.38;;;;;;;;;;5087573;28;20249;-62
2023/03/04 02:15:27;;;;;;;7.05;3.15;;;;;;;;;;5091335;28;20142;-62
2023/03/04 02:17:53;;;;;;;8.00;2.60;;;;;;;;;;5085897;28;20118;-62
2023/03/04 02:20:42;;;;;;;7.22;2.58;;;;;;;;;;5095606;28;20040;-62
2023/03/04 02:23:08;;;;;;;10.05;3.17;;;;;;;;;;5071170;28;20490;-63
2023/03/04 02:25:42;;;;;;;10.48;3.42;;;;;;;;;;5084042;28;20048;-62
2023/03/04 02:28:08;;;;;;;16.02;4.10;;;;;;;;;;5086302;28;20042;-62
2023/03/04 02:30:34;;;;;;;9.02;2.92;;;;;;;;;;5098527;28;20035;-62
2023/03/04 02:33:01;;;;;;;8.15;2.78;;;;;;;;;;5094017;28;20082;-62
2023/03/04 02:35:27;;;;;;;12.95;2.90;;;;;;;;;;5083549;28;20028;-62
2023/03/04 02:37:53;;;;;;;5.68;3.08;;;;;;;;;;5097905;28;20090;-62
2023/03/04 02:40:39;;;;;;;11.05;4.00;;;;;;;;;;5068179;28;20044;-62
2023/03/04 02:43:05;;;;;;;10.07;3.30;;;;;;;;;;5084531;28;20512;-62
2023/03/04 02:45:35;;;;;;;8.23;2.60;;;;;;;;;;5050435;28;20036;-62
2023/03/04 02:48:02;;;;;;;14.07;3.00;;;;;;;;;;5089730;28;20035;-62
2023/03/04 02:50:29;;;;;;;16.98;3.15;;;;;;;;;;5083240;28;20036;-63
2023/03/04 02:52:55;;;;;;;9.80;2.75;;;;;;;;;;5096177;28;20105;-63
2023/03/04 02:55:21;;;;;;;14.15;2.85;;;;;;;;;;5092114;28;20406;-62
2023/03/04 02:57:47;;;;;;;11.52;2.30;;;;;;;;;;5096312;28;20462;-62
2023/03/04 03:00:15;;;;;;;11.88;2.83;;;;;;;;;;5093088;28;20054;-62
2023/03/04 03:02:41;;;;;;;9.35;2.33;;;;;;;;;;5086609;28;20444;-63
2023/03/04 03:05:07;;;;;;;14.65;3.75;;;;;;;;;;5097874;28;20043;-62
2023/03/04 03:07:37;;;;;;;11.15;2.88;;;;;;;;;;5081068;28;20071;-63
2023/03/04 03:10:03;;;;;;;9.18;3.03;;;;;;;;;;5082607;28;20042;-63
2023/03/04 03:12:29;;;;;;;12.52;3.03;;;;;;;;;;5088538;28;20048;-62
2023/03/04 03:14:55;;;;;;;12.23;2.92;;;;;;;;;;5072674;28;20051;-62
2023/03/04 03:17:21;;;;;;;9.23;3.22;;;;;;;;;;5090124;28;20051;-62
2023/03/04 03:19:47;;;;;;;14.07;3.05;;;;;;;;;;5083772;28;20043;-62
2023/03/04 03:22:14;;;;;;;9.88;2.90;;;;;;;;;;5085129;28;20139;-62
2023/03/04 03:24:40;;;;;;;14.75;2.22;;;;;;;;;;5083802;28;20036;-63
2023/03/04 03:27:06;;;;;;;7.90;2.70;;;;;;;;;;5075242;28;20094;-62
2023/03/04 03:29:32;;;;;;;10.60;2.92;;;;;;;;;;5072421;28;20090;-62
2023/03/04 03:31:58;;;;;;;12.85;2.10;;;;;;;;;;5086200;28;20047;-62
2023/03/04 03:34:24;;;;;;;6.95;2.65;;;;;;;;;;5087627;28;20044;-63
2023/03/04 03:36:51;;;;;;;6.20;2.65;;;;;;;;;;5085996;28;20044;-62
2023/03/04 03:39:17;;;;;;;14.25;4.00;;;;;;;;;;5086478;28;20040;-62
2023/03/04 03:41:43;;;;;;;11.75;2.70;;;;;;;;;;5064939;28;20497;-63
2023/03/04 03:44:09;;;;;;;10.45;2.50;;;;;;;;;;5067825;28;20037;-62
2023/03/04 03:46:35;;;;;;;7.05;2.95;;;;;;;;;;5089111;28;20031;-62
2023/03/04 03:49:01;;;;;;;20.00;2.50;;;;;;;;;;5087888;28;20044;-62
2023/03/04 03:51:27;;;;;;;6.40;1.92;;;;;;;;;;5083894;28;20157;-62
2023/03/04 03:53:53;;;;;;;9.75;2.10;;;;;;;;;;5074722;28;20557;-63
2023/03/04 03:56:19;;;;;;;9.35;2.03;;;;;;;;;;5082113;28;20045;-62
2023/03/04 03:58:46;;;;;;;11.40;2.08;;;;;;;;;;5085068;28;20477;-63
2023/03/04 04:01:12;;;;;;;5.25;2.15;;;;;;;;;;5095106;28;20534;-62
2023/03/04 04:03:38;;;;;;;7.88;2.08;;;;;;;;;;5086759;28;20067;-62
2023/03/04 04:06:04;;;;;;;5.18;1.52;;;;;;;;;;5087789;28;20036;-62
2023/03/04 04:08:32;;;;;;;5.63;1.92;;;;;;;;;;5084700;28;20051;-63
2023/03/04 04:10:58;;;;;;;6.50;1.85;;;;;;;;;;5085511;28;20040;-62
2023/03/04 04:13:24;;;;;;;5.03;2.10;;;;;;;;;;5086774;28;20036;-62
2023/03/04 04:15:51;;;;;;;8.93;2.10;;;;;;;;;;5083630;28;20123;-62
2023/03/04 04:18:17;;;;;;;7.10;2.22;;;;;;;;;;5089150;28;20032;-63
2023/03/04 04:20:43;;;;;;;10.57;2.50;;;;;;;;;;5067038;28;20044;-62
2023/03/04 04:23:09;;;;;;;5.65;1.73;;;;;;;;;;5083684;28;20041;-62
2023/03/04 04:25:36;;;;;;;7.53;1.92;;;;;;;;;;5100471;28;20645;-62
2023/03/04 04:28:02;;;;;;;7.65;2.42;;;;;;;;;;5098456;28;20122;-62
2023/03/04 04:30:28;;;;;;;3.10;1.48;;;;;;;;;;5082937;28;20131;-62
2023/03/04 04:32:54;;;;;;;7.18;1.90;;;;;;;;;;5089761;28;20042;-62
2023/03/04 04:35:20;;;;;;;5.07;1.58;;;;;;;;;;5066319;28;20047;-62
2023/03/04 04:37:46;;;;;;;7.47;2.00;;;;;;;;;;5095471;28;20036;-62
2023/03/04 04:40:13;;;;;;;6.43;2.00;;;;;;;;;;5084181;28;20123;-62
2023/03/04 04:42:39;;;;;;;7.00;1.50;;;;;;;;;;5060527;28;20044;-62
2023/03/04 04:45:05;;;;;;;7.03;1.40;;;;;;;;;;5055892;28;20534;-63
2023/03/04 04:47:31;;;;;;;6.30;1.38;;;;;;;;;;5085273;28;20029;-62
2023/03/04 04:49:57;;;;;;;8.05;1.85;;;;;;;;;;5085952;28;20070;-62
2023/03/04 04:52:24;;;;;;;4.65;2.17;;;;;;;;;;5084471;28;20127;-62
2023/03/04 04:54:50;;;;;;;5.43;2.00;;;;;;;;;;5085358;28;20505;-63
2023/03/04 04:57:16;;;;;;;10.75;1.88;;;;;;;;;;5086294;28;20481;-63
2023/03/04 04:59:42;;;;;;;4.57;1.40;;;;;;;;;;5084258;28;20052;-62
2023/03/04 05:02:08;;;;;;;4.63;1.27;;;;;;;;;;5086447;28;20043;-63
2023/03/04 05:04:34;;;;;;;9.85;1.73;;;;;;;;;;5086494;28;20413;-62
2023/03/04 05:07:00;;;;;;;4.20;1.52;;;;;;;;;;5081606;28;20413;-62
2023/03/04 05:09:26;;;;;;;13.48;2.05;;;;;;;;;;5081589;28;20043;-62
2023/03/04 05:11:53;;;;;;;12.75;2.75;;;;;;;;;;5081571;28;20039;-62
2023/03/04 05:14:19;;;;;;;7.43;1.95;;;;;;;;;;5087913;28;20139;-62
2023/03/04 05:16:45;;;;;;;7.05;1.85;;;;;;;;;;5088042;28;20044;-62
2023/03/04 05:19:11;;;;;;;7.13;2.05;;;;;;;;;;5088184;28;20500;-62
2023/03/04 05:21:37;;;;;;;10.20;1.73;;;;;;;;;;5085677;28;20400;-63
2023/03/04 05:24:03;;;;;;;6.90;1.83;;;;;;;;;;5081238;28;20036;-62
2023/03/04 05:26:30;;;;;;;4.40;1.65;;;;;;;;;;5061164;28;20095;-62
2023/03/04 05:28:56;;;;;;;8.25;2.13;;;;;;;;;;5051091;28;20094;-62
2023/03/04 05:31:22;;;;;;;12.05;2.25;;;;;;;;;;5087499;28;20040;-62
2023/03/04 05:33:48;;;;;;;7.68;1.92;;;;;;;;;;5094922;28;20495;-62
2023/03/04 05:36:14;;;;;;;3.03;1.33;;;;;;;;;;5080705;28;20101;-63
2023/03/04 05:38:40;;;;;;;7.22;3.15;;;;;;;;;;5087462;28;20086;-63
2023/03/04 05:41:07;;;;;;;6.30;2.22;;;;;;;;;;5083322;28;20105;-62
2023/03/04 05:43:35;;;;;;;5.82;2.13;;;;;;;;;;5069541;28;20052;-62
2023/03/04 05:46:01;;;;;;;8.23;1.98;;;;;;;;;;5064188;28;20036;-62
2023/03/04 05:48:28;;;;;;;4.85;2.25;;;;;;;;;;5067013;28;20111;-62
2023/03/04 05:50:55;;;;;;;8.68;2.33;;;;;;;;;;5086255;28;20081;-63
2023/03/04 05:53:22;;;;;;;4.45;1.98;;;;;;;;;;5082166;28;20035;-62
2023/03/04 05:55:48;;;;;;;6.00;1.80;;;;;;;;;;5081173;28;20032;-62
2023/03/04 05:58:15;;;;;;;5.38;2.38;;;;;;;;;;5068720;28;20127;-62
2023/03/04 06:00:41;;;;;;;9.07;2.88;;;;;;;;;;5082632;28;20047;-62
2023/03/04 06:03:07;;;;;;;7.53;1.65;;;;;;;;;;5059944;28;20048;-62
2023/03/04 06:05:33;;;;;;;4.57;2.75;;;;;;;;;;5085250;28;20646;-62
2023/03/04 06:07:59;;;;;;;7.93;2.10;;;;;;;;;;5085493;28;20040;-63
2023/03/04 06:10:25;;;;;;;6.97;2.22;;;;;;;;;;5086889;28;20040;-62
2023/03/04 06:12:51;;;;;;;4.47;1.85;;;;;;;;;;5067637;28;20047;-63
2023/03/04 06:15:18;;;;;;;8.02;2.08;;;;;;;;;;5069312;28;20516;-62
2023/03/04 06:17:44;;;;;;;7.03;1.77;;;;;;;;;;5102787;28;20043;-62
2023/03/04 06:20:10;;;;;;;5.25;2.00;;;;;;;;;;5089902;28;20098;-62
2023/03/04 06:22:37;;;;;;;9.05;1.70;;;;;;;;;;5084838;28;20040;-62
2023/03/04 06:25:03;;;;;;;5.35;2.00;;;;;;;;;;5087618;28;20110;-62
2023/03/04 06:27:29;;;;;;;4.40;2.00;;;;;;;;;;5087264;28;20040;-62
2023/03/04 06:29:55;;;;;;;4.28;1.45;;;;;;;;;;5089349;28;20082;-62
2023/03/04 06:32:21;;;;;;;10.90;1.83;;;;;;;;;;5090271;28;20455;-63
2023/03/04 06:34:48;;;;;;;4.72;1.92;;;;;;;;;;5090951;28;20047;-63
2023/03/04 06:37:14;;;;;;;3.53;1.17;;;;;;;;;;5082380;28;20410;-63
2023/03/04 06:39:40;;;;;;;7.30;1.88;;;;;;;;;;5088252;28;20079;-63
2023/03/04 06:42:06;;;;;;;7.03;2.15;;;;;;;;;;5093577;28;20036;-63
2023/03/04 06:44:32;;;;;;;9.02;2.70;;;;;;;;;;5086704;28;20074;-62
2023/03/04 06:46:58;;;;;;;5.75;1.90;;;;;;;;;;5086372;28;20063;-62
2023/03/04 06:49:25;;;;;;;3.67;1.60;;;;;;;;;;5089297;28;20190;-62
2023/03/04 06:51:51;;;;;;;5.18;1.85;;;;;;;;;;5067772;28;20144;-63
2023/03/04 06:54:18;;;;;;;4.10;1.45;;;;;;;;;;5089479;28;20039;-62
2023/03/04 06:56:45;;;;;;;5.40;2.22;;;;;;;;;;5087699;28;20051;-63
2023/03/04 06:59:11;;;;;;;9.55;2.88;;;;;;;;;;5087732;28;20040;-63
2023/03/04 07:01:37;;;;;;;6.53;2.17;;;;;;;;;;5064902;28;20041;-62
2023/03/04 07:04:03;;;;;;;6.95;2.00;;;;;;;;;;5104981;28;20051;-62
2023/03/04 07:06:30;;;;;;;6.93;2.78;;;;;;;;;;5087961;28;20044;-63
2023/03/04 07:08:56;;;;;;;8.10;2.25;;;;;;;;;;5085315;28;20123;-63
2023/03/04 07:11:22;;;;;;;6.45;2.40;;;;;;;;;;5092483;28;20051;-62
2023/03/04 07:13:49;;;;;;;8.73;2.67;;;;;;;;;;5091044;28;20043;-62
2023/03/04 07:16:16;;;;;;;6.68;2.20;;;;;;;;;;5073434;28;20044;-63
2023/03/04 07:18:43;;;;;;;7.57;2.35;;;;;;;;;;5069288;28;20535;-62
2023/03/04 07:21:09;;;;;;;10.10;2.60;;;;;;;;;;5084347;28;20043;-62
2023/03/04 07:23:36;;;;;;;6.30;2.53;;;;;;;;;;5088358;28;20115;-62
2023/03/04 07:26:02;;;;;;;5.68;1.90;;;;;;;;;;5085370;28;20040;-62
2023/03/04 07:28:29;;;;;;;7.18;2.28;;;;;;;;;;5074351;28;20047;-63
2023/03/04 07:30:55;;;;;;;9.60;2.50;;;;;;;;;;5087534;28;20048;-62
2023/03/04 07:33:21;;;;;;;6.65;2.22;;;;;;;;;;5088704;28;20036;-62
2023/03/04 07:35:47;;;;;;;8.52;2.97;;;;;;;;;;5091238;28;20123;-63
2023/03/04 07:38:13;;;;;;;8.93;3.50;;;;;;;;;;5086367;28;20036;-62
2023/03/04 07:40:39;;;;;;;10.18;2.65;;;;;;;;;;5083972;28;20485;-62
2023/03/04 07:43:06;;;;;;;6.40;2.72;;;;;;;;;;5086857;28;20123;-62
2023/03/04 07:45:32;;;;;;;13.68;3.20;;;;;;;;;;5069582;28;20542;-62
2023/03/04 07:47:58;;;;;;;10.38;2.85;;;6.80;99.90;;;;;;5086165;28;20032;-62
2023/03/04 07:50:23;;;;;;;10.43;3.20;;;6.20;99.90;;;;;;5087460;28;20043;-62
2023/03/04 07:52:49;;;;;;;17.92;3.65;;;6.10;99.90;;;;;;5086659;28;20048;-62
2023/03/04 07:55:16;;;;;;;20.23;3.75;;;6.20;99.90;;;;;;5089070;28;20512;-62
2023/03/04 07:57:45;;;;;;;12.38;3.55;;;6.20;99.90;;;;;;5086978;28;20036;-62
2023/03/04 08:00:12;;;;;;;6.88;2.50;;;6.20;99.90;;;;;;5088501;28;20402;-63
2023/03/04 08:02:39;;;;;;;16.58;3.38;;;6.20;99.90;;;;;;5085309;28;20086;-62
2023/03/04 08:05:05;;;;;;;19.35;3.47;;;6.20;99.90;;;;;;5064998;28;20066;-63
2023/03/04 08:07:31;;;;;;;6.97;2.45;;;6.20;99.90;;;;;;5081994;28;20028;-62
2023/03/04 08:09:57;;;;;;;7.93;2.10;;;6.20;99.90;;;;;;5036840;28;20040;-62
2023/03/04 08:12:24;;;;;;;9.90;3.17;;;6.30;99.90;;;;;;5086691;28;20120;-62
2023/03/04 08:14:50;;;;;;;9.10;3.08;;;6.30;99.90;;;;;;5086482;28;20052;-62
2023/03/04 08:17:16;;;;;;;5.95;2.55;;;6.30;99.90;;;;;;5087725;28;20048;-63
2023/03/04 08:19:42;;;;;;;12.88;2.80;;;6.30;99.90;;;;;;5088213;28;20040;-61
2023/03/04 08:22:08;;;;;;;6.93;3.03;;;6.30;99.90;;;;;;5088654;28;20044;-62
2023/03/04 08:24:34;;;;;;;9.15;2.92;;;6.30;99.90;;;;;;5064760;28;20398;-61
2023/03/04 08:26:59;;;;;;;10.50;3.80;;;6.20;99.90;;;;;;5075492;28;20031;-61
2023/03/04 08:29:26;;;;;;;8.45;2.58;;;6.20;99.90;;;;;;5084995;28;20482;-63
2023/03/04 08:31:54;;;;;;;14.10;3.38;;;6.20;99.90;;;;;;5085797;28;20044;-61
2023/03/04 08:34:23;;;;;;;17.33;4.93;;;6.20;99.90;;;;;;5087088;28;20047;-62
2023/03/04 08:36:49;;;;;;;21.90;5.95;;;6.30;99.90;;;;;;5089237;28;20032;-62
2023/03/04 08:39:16;;;;;;;13.52;3.10;;;6.30;99.90;;;;;;5059607;28;20129;-61
2023/03/04 08:41:43;;;;;;;13.15;4.57;;;6.30;99.90;;;;;;5082893;28;20049;-62
2023/03/04 08:44:09;;;;;;;13.13;3.88;;;6.30;99.90;;;;;;5084521;28;20039;-62
2023/03/04 08:46:37;;;;;;;12.93;4.07;;;6.30;99.90;;;;;;5085941;28;20075;-62
2023/03/04 08:49:03;;;;;;;9.75;3.33;;;6.30;99.90;;;;;;5081817;28;20475;-62
2023/03/04 08:51:29;;;;;;;14.52;3.50;;;6.30;99.90;;;;;;5084405;28;20040;-62
2023/03/04 08:53:55;;;;;;;10.63;3.42;;;6.30;99.90;;;;;;5088985;28;20039;-63
2023/03/04 08:56:21;;;;;;;13.57;3.47;;;6.30;99.90;;;;;;5094074;28;20104;-62
2023/03/04 08:58:47;;;;;;;18.98;3.78;;;6.30;99.90;;;;;;5081848;28;20034;-62
2023/03/04 09:01:13;;;;;;;16.10;4.25;;;6.30;99.90;;;;;;5086937;28;20435;-62
2023/03/04 09:03:40;;;;;;;14.07;3.63;;;6.40;99.90;;;;;;5084768;28;20089;-62
2023/03/04 09:06:07;;;;;;;9.57;3.20;;;6.40;99.90;;;;;;5064522;28;20040;-62
2023/03/04 09:08:33;;;;;;;12.15;3.33;;;6.40;99.90;;;;;;5086779;28;20086;-61
2023/03/04 09:10:59;;;;;;;8.43;3.38;;;6.40;99.90;;;;;;5072432;28;20555;-61
2023/03/04 09:13:28;;;;;;;18.13;4.10;;;6.40;99.90;;;;;;5060381;28;20032;-61
2023/03/04 09:15:54;;;;;;;9.63;3.83;;;6.40;99.90;;;;;;5087701;28;20067;-61
2023/03/04 09:18:22;;;;;;;8.93;3.78;;;6.40;99.90;;;;;;5069800;28;20035;-62
2023/03/04 09:20:48;;;;;;;18.15;3.83;;;6.40;99.90;;;;;;5063621;28;20075;-61
2023/03/04 09:23:14;;;;;;;22.67;3.83;;;6.40;99.90;;;;;;5088586;28;20539;-61
2023/03/04 09:25:41;;;;;;;19.98;4.88;;;6.40;99.90;;;;;;5085040;28;20115;-62
2023/03/04 09:28:07;;;;;;;15.48;4.32;;;6.40;99.90;;;;;;5081057;28;20058;-61
2023/03/04 09:30:34;;;;;;;12.77;3.70;;;6.40;99.90;;;;;;5087167;28;20032;-61
2023/03/04 09:33:00;;;;;;;16.35;3.75;;;6.50;99.90;;;;;;5085649;28;20186;-62
2023/03/04 09:35:28;;;;;;;18.23;4.15;;;6.50;99.90;;;;;;5066029;28;20540;-61
2023/03/04 09:37:54;;;;;;;8.00;3.13;;;6.50;99.90;;;;;;5058536;28;20217;-61
2023/03/04 09:40:23;;;;;;;10.15;3.45;;;6.50;99.90;;;;;;5087468;28;20127;-61
2023/03/04 09:42:52;;;;;;;12.32;4.03;;;6.50;99.90;;;;;;5087119;28;20032;-62
2023/03/04 09:45:22;;;;;;;9.05;2.80;;;6.50;99.90;;;;;;5092058;28;20071;-61
2023/03/04 09:47:51;;;;;;;8.48;3.10;;;6.50;99.90;;;;;;5084602;28;20039;-62
2023/03/04 09:50:19;;;;;;;9.00;3.80;;;;;;;;;;5097804;28;20050;-62
2023/03/04 09:53:04;;;;;;;11.52;2.72;;;;;;;;;;5088720;28;20042;-62
2023/03/04 09:55:30;;;;;;;10.15;3.38;;;;;;;;;;5088703;28;20521;-61
2023/03/04 09:58:21;;;;;;;6.28;1.98;;;;;;;;;;5089264;28;20058;-62
2023/03/04 10:01:06;;;;;;;5.88;2.50;;;;;;;;;;5062581;28;20040;-62
2023/03/04 10:03:41;;;;;;;8.63;3.13;;;;;;;;;;5073590;28;20108;-61
2023/03/04 10:06:10;;;;;;;9.82;2.38;;;;;;;;;;5068393;28;20098;-62
2023/03/04 10:08:54;;;;;;;5.55;1.67;;;;;;;;;;5085069;28;20032;-62
2023/03/04 10:11:25;;;;;;;7.30;2.10;;;;;;;;;;5063108;28;20047;-62
2023/03/04 10:14:02;;;;;;;6.82;2.45;;;;;;;;;;5088842;28;20048;-62
2023/03/04 10:16:34;;;;;;;8.55;2.30;;;;;;;;;;5089708;28;20043;-61
2023/03/04 10:19:04;;;;;;;7.75;1.90;;;;;;;;;;5086092;28;20608;-61
2023/03/04 10:21:33;;;;;;;7.63;1.65;;;;;;;;;;5089825;28;20966;-62
2023/03/04 10:24:01;;;;;;;4.05;1.35;;;;;;;;;;5074188;28;20386;-62
2023/03/04 10:26:32;;;;;;;9.38;1.90;;;;;;;;;;5046582;28;20040;-61
2023/03/04 10:29:01;;;;;;;5.05;1.73;;;;;;;;;;5083422;28;20505;-62
2023/03/04 10:31:37;;;;;;;2.78;1.42;;;;;;;;;;5090294;28;20040;-62
2023/03/04 10:34:04;;;;;;;5.93;1.65;;;;;;;;;;5092791;28;20509;-61
2023/03/04 10:36:30;;;;;;;7.25;2.20;;;;;;;;;;5065980;28;20386;-62
2023/03/04 10:39:08;;;;;;;5.78;2.22;;;;;;;;;;5092994;28;20051;-61
2023/03/04 10:41:35;;;;;;;7.43;3.30;;;;;;;;;;5066558;28;20044;-61
2023/03/04 10:44:03;;;;;;;11.95;2.30;;;;;;;;;;5092750;28;20036;-62
2023/03/04 10:46:30;;;;;;;6.07;2.55;;;;;;;;;;5081357;28;20046;-62
2023/03/04 10:48:56;;;;;;;12.38;2.67;;;;;;;;;;5088923;28;20070;-62
2023/03/04 10:51:23;;;;;;;6.57;2.40;;;;;;;;;;5090632;28;20031;-62
2023/03/04 10:54:16;;;;;;;8.75;2.60;;;;;;;;;;5086832;28;20127;-63
2023/03/04 10:56:45;;;;;;;8.23;2.77;;;;;;;;;;5072951;28;20048;-62
2023/03/04 10:59:59;;;;;;;7.75;3.35;;;6.70;99.90;;;;;;5090106;28;20040;-62
2023/03/04 11:02:34;;;;;;;9.38;2.35;;;6.80;99.90;;;;;;5044428;28;20167;-62
2023/03/04 11:05:22;;;;;;;9.60;3.70;;;6.80;99.90;;;;;;5088509;28;20028;-62
2023/03/04 11:07:57;;;;;;;16.73;4.10;;;6.90;99.90;;;;;;5083834;28;20035;-61
2023/03/04 11:10:39;;;;;;;11.73;3.25;;;6.90;99.90;;;;;;5079797;28;20040;-61
2023/03/04 11:13:11;;;;;;;12.63;2.95;;;6.90;99.90;;;;;;5086325;28;20036;-62
2023/03/04 11:16:23;;;;;;;14.57;4.05;;;6.90;99.90;;;;;;5067109;28;20506;-62
2023/03/04 11:18:54;;;;;;;11.48;2.95;;;6.90;99.90;;;;;;5063978;28;20055;-62
2023/03/04 11:21:23;;;;;;;12.43;3.42;;;6.90;99.90;;;;;;5069667;28;20052;-61
2023/03/04 11:23:59;;;;;;;11.80;4.13;;;6.90;99.90;;;;;;5047864;28;20038;-62
2023/03/04 11:26:35;;;;;;;8.95;3.55;;;6.80;99.90;;;;;;5067032;28;20036;-62
2023/03/04 11:29:21;;;;;;;13.55;4.38;;;6.90;99.90;;;;;;5069582;28;20032;-62
2023/03/04 11:32:20;;;;;;;11.70;3.78;;;6.90;99.90;;;;;;5068790;28;20111;-62
2023/03/04 11:34:56;;;;;;;10.30;4.00;;;6.90;99.90;;;;;;5066773;28;20537;-62
2023/03/04 11:37:44;;;;;;;22.02;4.95;;;7.00;99.90;;;;;;5069067;28;20094;-62
2023/03/04 11:40:25;;;;;;;14.07;4.03;;;7.00;99.90;;;;;;5065527;28;20110;-62
2023/03/04 11:43:11;;;;;;;12.05;4.05;;;7.00;99.90;;;;;;5069122;28;20447;-62
2023/03/04 11:45:48;;;;;;;12.20;4.40;;;7.00;99.90;;;;;;5066256;28;20135;-62
2023/03/04 11:49:07;;;;;;;13.10;3.10;;;7.00;99.90;;;;;;5070476;28;20044;-62
2023/03/04 11:51:45;;;;;;;12.43;2.10;;;7.00;99.90;;;;;;4948043;28;20043;-61
2023/03/04 11:54:34;;;;;;;7.90;2.28;;;7.00;99.90;;;;;;5076817;28;20223;-61
2023/03/04 11:57:08;;;;;;;15.75;3.63;;;7.00;99.90;;;;;;5059397;28;20155;-62
2023/03/04 11:59:48;;;;;;;12.82;3.15;;;7.00;99.90;;;;;;5065101;28;20086;-61
2023/03/04 12:02:20;;;;;;;14.07;3.58;;;7.10;99.90;;;;;;5066565;28;20048;-62
2023/03/04 12:04:49;;;;;;;13.20;3.25;;;;;;;;;;5066923;28;20414;-62
2023/03/04 12:07:22;;;;;;;15.38;3.33;;;;;;;;;;5065580;28;20076;-61
2023/03/04 12:09:48;;;;;;;14.65;3.47;;;;;;;;;;5064797;28;20037;-62
2023/03/04 12:12:23;;;;;;;13.05;3.88;;;;;;;;;;5057255;28;20048;-61
2023/03/04 12:15:10;;;;;;;9.63;4.15;;;;;;;;;;5044768;28;20075;-62
2023/03/04 12:17:36;;;;;;;14.77;3.58;;;;;;;;;;5062283;28;20048;-62
2023/03/04 12:20:21;;;;;;;14.45;3.28;;;;;;;;;;5044102;28;20067;-62
2023/03/04 12:22:54;;;;;;;13.13;4.43;;;;;;;;;;5062079;28;20469;-62
2023/03/04 12:25:20;;;;;;;12.90;3.45;;;;;;;;;;5060035;28;20179;-62
2023/03/04 12:28:05;;;;;;;10.82;3.50;;;;;;;;;;5065148;28;20122;-62
2023/03/04 12:30:40;;;;;;;8.85;2.72;;;;;;;;;;5065332;28;20131;-62
2023/03/04 12:33:15;;;;;;;11.27;3.05;;;;;;;;;;5064130;28;20040;-62
2023/03/04 12:35:47;;;;;;;4.85;1.80;;;;;;;;;;5061304;28;20045;-62
2023/03/04 12:38:34;;;;;;;8.45;2.75;;;;;;;;;;5057845;28;20044;-62
2023/03/04 12:41:03;;;;;;;11.82;3.83;;;;;;;;;;5049168;28;20052;-62
2023/03/04 12:43:56;;;;;;;9.00;3.30;;;;;;;;;;5064624;28;20037;-62
2023/03/04 12:46:25;;;;;;;8.52;3.70;;;;;;;;;;5052574;28;20059;-62
2023/03/04 12:48:51;;;;;;;20.08;4.70;;;;;;;;;;5059801;28;20620;-62
2023/03/04 12:51:17;;;;;;;18.40;3.83;;;;;;;;;;5061366;28;20040;-61
2023/03/04 12:53:49;;;;;;;9.85;2.67;;;;;;;;;;5058020;28;20044;-62
2023/03/04 12:56:27;;;;;;;11.50;4.28;;;;;;;;;;5053879;28;20378;-62
2023/03/04 12:58:54;;;;;;;8.20;3.35;;;;;;;;;;5062416;28;20045;-62
2023/03/04 13:01:43;;;;;;;14.90;4.03;;;;;;;;;;5057486;28;20044;-62
2023/03/04 13:04:14;;;;;;;12.90;4.13;;;;;;;;;;5053632;28;20134;-62
2023/03/04 13:06:46;;;;;;;10.27;2.95;;;;;;;;;;5064011;28;20132;-62
2023/03/04 13:09:16;;;;;;;9.20;3.20;;;;;;;;;;5060758;28;20044;-62
2023/03/04 13:11:46;;;;;;;7.65;3.67;;;;;;;;;;5065025;28;20036;-62
2023/03/04 13:14:16;;;;;;;8.20;3.45;;;;;;;;;;5067705;28;20056;-62
2023/03/04 13:17:12;;;;;;;15.73;3.40;;;;;;;;;;5088911;28;20052;-62
2023/03/04 13:19:42;;;;;;;15.57;3.60;;;;;;;;;;5075989;28;20044;-62
2023/03/04 13:22:27;;;;;;;9.23;3.22;;;;;;;;;;5074675;28;20048;-62
2023/03/04 13:24:55;;;;;;;8.65;2.42;;;;;;;;;;5089786;28;20051;-62
2023/03/04 13:27:39;;;;;;;15.43;4.05;;;;;;;;;;5093919;28;20032;-62
2023/03/04 13:30:25;;;;;;;10.38;3.03;;;;;;;;;;5089736;28;20035;-62
2023/03/04 13:32:51;;;;;;;9.32;3.38;;;;;;;;;;5071964;28;20086;-62
2023/03/04 13:36:03;;;;;;;8.57;4.40;;;;;;;;;;5088463;28;20063;-62
2023/03/04 13:38:38;;;;;;;11.18;3.20;;;;;;;;;;5004335;28;20440;-62
2023/03/04 13:41:19;;;;;;;9.55;2.58;;;;;;;;;;5001024;28;20046;-62
2023/03/04 13:43:45;;;;;;;6.05;2.50;;;;;;;;;;5058175;28;20123;-62
2023/03/04 13:46:17;;;;;;;11.07;3.15;;;;;;;;;;5090990;28;20513;-62
2023/03/04 13:48:59;;;;;;;5.65;2.45;;;;;;;;;;5085793;28;20382;-62
2023/03/04 13:51:25;;;;;;;7.97;2.72;;;;;;;;;;5085430;28;20115;-62
2023/03/04 13:54:01;;;;;;;7.30;2.20;;;;;;;;;;5082228;28;20074;-62
2023/03/04 13:56:50;;;;;;;12.32;3.25;;;;;;;;;;5086761;28;20374;-62
2023/03/04 13:59:20;;;;;;;13.57;2.65;;;;;;;;;;5082911;28;20125;-62
2023/03/04 14:01:46;;;;;;;14.48;3.45;;;;;;;;;;5086462;28;20345;-64
2023/03/04 14:04:15;;;;;;;11.45;3.17;;;;;;;;;;5089070;28;20036;-62
2023/03/04 14:06:43;;;;;;;9.88;2.97;;;;;;;;;;5086918;28;20536;-62
2023/03/04 14:09:16;;;;;;;9.57;3.22;;;;;;;;;;5061541;28;20040;-62
2023/03/04 14:11:43;;;;;;;13.65;4.05;;;;;;;;;;5069979;28;20559;-62
2023/03/04 14:14:14;;;;;;;11.80;3.60;;;;;;;;;;5087329;28;20056;-62
2023/03/04 14:16:47;;;;;;;14.50;5.55;;;;;;;;;;5070570;28;20683;-62
2023/03/04 14:19:13;;;;;;;;;;;;;;;;;;5086089;28;20050;-62
2023/03/04 14:21:44;;;;;;;11.35;3.75;;;;;;;;;;5069450;28;19928;-62
2023/03/04 14:24:14;;;;;;;11.18;3.55;;;;;;;;;;5087620;28;20075;-62
2023/03/04 14:26:40;;;;;;;10.90;4.00;;;;;;;;;;5066107;28;20502;-62